Time;durP1;ratioP1;P1;durP2;ratioP2;P2;SDS_P1;SDS_P2;PMS_P1;PMS_P2;Temp;Humidity;BMP_temperature;BMP_pressure;BME280_temperature;BME280_humidity;BME280_pressure;Samples;Min_cycle;Max_cycle;Signal;HPM_P1;HPM_P2
2021/12/13 00:02:23;;;;;;;60.97;9.50;;;;;;;9.03;100.00;36845.97;5089553;28;20237;-69
2021/12/13 00:05:04;;;;;;;62.73;9.30;;;;;;;9.10;100.00;37421.34;5097412;28;20048;-69
2021/12/13 00:07:36;;;;;;;67.40;10.17;;;;;;;9.08;100.00;38047.75;5097683;28;20245;-68
2021/12/13 00:10:11;;;;;;;75.18;9.25;;;;;;;9.13;100.00;38593.91;5098160;28;20400;-68
2021/12/13 00:12:42;;;;;;;70.47;9.33;;;;;;;9.11;100.00;38584.84;5091108;28;20392;-68
2021/12/13 00:15:22;;;;;;;56.40;9.73;;;;;;;9.09;100.00;39216.22;5086943;28;20447;-68
2021/12/13 00:17:50;;;;;;;67.97;9.80;;;;;;;9.07;100.00;40065.50;5091763;28;20054;-68
2021/12/13 00:20:29;;;;;;;72.37;10.70;;;;;;;9.07;100.00;38840.75;5101546;28;20096;-70
2021/12/13 00:23:03;;;;;;;61.03;10.17;;;;;;;9.09;100.00;38647.50;5093844;28;20070;-69
2021/12/13 00:25:29;;;;;;;69.07;10.33;;;;;;;9.17;100.00;39772.88;5094845;28;20035;-69
2021/12/13 00:28:13;;;;;;;78.20;11.13;;;;;;;9.19;100.00;40612.50;5100741;28;20027;-69
2021/12/13 00:30:47;;;;;;;76.00;10.67;;;;;;;9.19;100.00;40902.19;5101715;28;20026;-69
2021/12/13 00:33:19;;;;;;;79.70;11.50;;;;;;;9.19;100.00;40351.03;5096432;28;20180;-69
2021/12/13 00:35:52;;;;;;;89.00;11.45;;;;;;;9.18;100.00;40662.69;5100814;28;20375;-68
2021/12/13 00:38:21;;;;;;;83.87;11.33;;;;;;;9.22;100.00;40258.00;5096283;28;20130;-68
2021/12/13 00:40:54;;;;;;;77.80;11.53;;;;;;;9.23;100.00;40700.03;5101084;28;20307;-68
2021/12/13 00:43:36;;;;;;;78.73;10.53;;;;;;;9.24;100.00;41903.47;5093593;28;20592;-68
2021/12/13 00:46:09;;;;;;;82.87;11.83;;;;;;;9.24;100.00;43709.56;5100778;28;20119;-69
2021/12/13 00:48:37;;;;;;;71.00;10.03;;;;;;;9.24;100.00;43709.56;5100605;28;20035;-68
2021/12/13 00:51:19;;;;;;;78.07;11.27;;;;;;;9.27;100.00;43383.44;5092969;28;20039;-69
2021/12/13 00:53:47;;;;;;;76.22;10.05;;;;;;;9.23;100.00;43051.53;5099750;28;20383;-69
2021/12/13 00:56:43;;;;;;;86.40;11.07;;;;;;;9.24;100.00;43381.13;5092578;28;20155;-69
2021/12/13 00:59:13;;;;;;;74.10;10.37;;;;;;;9.30;100.00;43362.31;5090244;28;20405;-68
2021/12/13 01:01:40;;;;;;;70.17;10.97;;;;;;;9.32;100.00;42730.06;5095965;28;20183;-68
2021/12/13 01:04:13;;;;;;;73.03;11.20;;;;;;;9.27;100.00;42726.59;5099146;28;20054;-69
2021/12/13 01:06:59;;;;;;;76.97;10.47;;;;;;;9.28;100.00;42399.00;5104530;27;20165;-69
2021/12/13 01:10:02;;;;;;;74.60;10.37;;;;;;;9.26;100.00;41740.81;5099137;28;20284;-68
2021/12/13 01:12:28;;;;;;;67.10;10.75;;;;;;;9.35;100.00;42404.31;5092094;28;20020;-69
2021/12/13 01:15:02;;;;;;;82.47;10.70;;;;;;;9.30;100.00;41743.81;5099730;28;20114;-68
2021/12/13 01:18:16;;;;;;;70.33;11.40;;;;;;;9.35;100.00;42075.94;5089766;28;20042;-68
2021/12/13 01:20:42;;;;;;;75.90;11.97;;;;;;;9.36;100.00;42405.09;5092277;28;20100;-69
2021/12/13 01:23:15;;;;;;;92.00;12.35;;;;;;;9.32;100.00;42001.44;5091564;28;20522;-68
2021/12/13 01:26:13;;;;;;;71.23;11.23;;;;;;;9.40;100.00;42659.59;5093767;28;20354;-69
2021/12/13 01:28:42;;;;;;;76.07;11.53;;;;;;;9.35;100.00;43061.19;5100378;28;20200;-69
2021/12/13 01:31:14;;;;;;;79.80;12.93;;;;;;;9.37;100.00;43365.56;5099742;28;20027;-68
2021/12/13 01:33:44;;;;;;;95.18;12.32;;;;;;;9.35;100.00;42732.75;5093789;28;20282;-69
2021/12/13 01:36:11;;;;;;;89.27;13.30;;;;;;;9.37;100.00;43719.78;5099849;28;20027;-69
2021/12/13 01:38:45;;;;;;;88.07;13.30;;;;;;;9.35;100.00;43389.69;5093777;28;20054;-69
2021/12/13 01:41:23;;;;;;;101.97;13.47;;;;;;;9.42;100.00;43722.91;5089047;28;20038;-69
2021/12/13 01:43:57;;;;;;;99.27;14.47;;;;;;;9.42;100.00;44051.88;5095888;28;20104;-69
2021/12/13 01:46:24;;;;;;;112.30;14.23;;;;;;;9.38;100.00;44049.13;5097918;28;20109;-68
2021/12/13 01:48:52;;;;;;;109.63;14.43;;;;;;;9.36;100.00;44047.53;5096555;28;20123;-69
2021/12/13 01:51:21;;;;;;;92.67;14.13;;;;;;;9.39;100.00;44049.91;5097857;28;20031;-69
2021/12/13 01:53:52;;;;;;;98.43;13.97;;;;;;;9.43;100.00;44052.28;5097116;28;20023;-69
2021/12/13 01:59:05;;;;;;;105.43;13.27;;;;;;;9.42;100.00;43066.22;5099182;28;20283;-69
2021/12/13 02:01:32;;;;;;;93.13;13.90;;;;;;;9.38;100.00;42696.56;5095410;28;20200;-69
2021/12/13 02:04:05;;;;;;;104.87;15.40;;;;;;;9.45;100.00;42740.03;5090485;28;20692;-69
2021/12/13 02:06:39;;;;;;;99.97;14.13;;;;;;;9.44;100.00;43067.38;5093256;28;20044;-69
2021/12/13 02:09:13;;;;;;;102.73;15.20;;;;;;;9.44;100.00;43067.38;5087683;28;20020;-69
2021/12/13 02:11:40;;;;;;;92.47;15.00;;;;;;;9.42;100.00;44708.75;5081821;28;20292;-69
2021/12/13 02:14:15;;;;;;;104.83;15.77;;;;;;;9.44;100.00;45696.91;5093259;28;20035;-69
2021/12/13 02:19:32;;;;;;;102.65;15.50;;;;;;;9.44;100.00;44710.75;5095426;28;20116;-69
2021/12/13 02:22:22;;;;;;;93.07;15.00;;;;;;;9.47;100.00;46027.78;5087854;28;20201;-69
2021/12/13 02:24:49;;;;;;;91.73;14.40;;;;;;;9.50;100.00;45372.63;5085862;28;20396;-69
2021/12/13 02:27:21;;;;;;;99.93;15.20;;;;;;;9.46;100.00;42740.81;5088640;28;20034;-69
2021/12/13 02:29:46;;;;;;;75.00;13.80;;;;;;;9.53;100.00;42417.28;5099087;28;20028;-69
2021/12/13 02:32:12;;;;;;;98.13;15.53;;;;;;;9.46;100.00;41365.53;5098428;28;20031;-69
2021/12/13 02:34:41;;;;;;;96.47;14.33;;;;;;;9.48;100.00;41100.22;5098653;28;20247;-69
2021/12/13 02:37:09;;;;;;;103.63;14.80;;;;;;;9.50;100.00;41429.69;5093190;28;20032;-69
2021/12/13 02:39:58;;;;;;;100.13;14.90;;;;;;;9.50;100.00;41101.69;5098956;28;20131;-69
2021/12/13 02:42:26;;;;;;;103.00;15.87;;;;;;;9.48;100.00;41633.44;5092223;28;20144;-68
2021/12/13 02:45:00;;;;;;;111.87;15.17;;;;;;;9.52;100.00;42088.03;5099099;28;20395;-68
2021/12/13 02:47:34;;;;;;;96.03;14.97;;;;;;;9.52;100.00;43073.56;5093091;28;20479;-68
2021/12/13 02:50:00;;;;;;;118.07;16.30;;;;;;;9.49;100.00;42085.78;5093000;28;20111;-68
2021/12/13 02:52:27;;;;;;;100.70;15.00;;;;;;;9.48;100.00;43399.03;5088734;28;20032;-68
2021/12/13 02:55:05;;;;;;;106.17;15.27;;;;;;;9.46;100.00;43726.44;5093221;28;20407;-68
2021/12/13 02:57:37;;;;;;;102.27;14.93;;;;;;;9.46;100.00;43397.47;5091418;28;20028;-68
2021/12/13 03:00:13;;;;;;;102.67;15.87;;;;;;;9.52;100.00;44716.75;5094620;28;20073;-69
2021/12/13 03:02:43;;;;;;;86.00;15.03;;;;;;;9.57;100.00;44720.75;5091666;28;20024;-68
2021/12/13 03:05:14;;;;;;;88.93;14.50;;;;;;;9.51;100.00;48004.69;5091032;28;20606;-68
2021/12/13 03:07:46;;;;;;;89.32;14.30;;;;;;;9.50;100.00;48332.88;5083720;28;20024;-69
2021/12/13 03:10:21;;;;;;;87.90;14.93;;;;;;;9.48;100.00;48989.75;5079041;28;20225;-69
2021/12/13 03:12:47;;;;;;;86.43;14.40;;;;;;;9.47;100.00;49318.00;5081948;28;20619;-68
2021/12/13 03:15:16;;;;;;;92.00;13.63;;;;;;;9.49;100.00;48661.50;5093031;28;20038;-68
2021/12/13 03:18:01;;;;;;;93.87;13.53;;;;;;;9.50;100.00;48661.94;5092586;28;20035;-69
2021/12/13 03:20:29;;;;;;;86.47;14.20;;;;;;;9.51;100.00;48662.81;5091019;28;20049;-69
2021/12/13 03:23:17;;;;;;;94.20;15.60;;;;;;;9.49;100.00;49319.75;5097327;28;20446;-69
2021/12/13 03:26:06;;;;;;;89.27;13.30;;;;;;;9.46;100.00;48987.56;5079882;28;20036;-68
2021/12/13 03:28:54;;;;;;;86.33;14.13;;;;;;;9.48;100.00;50306.00;5085055;28;20427;-69
2021/12/13 03:31:26;;;;;;;83.17;13.27;;;;;;;9.47;100.00;49975.91;5096497;28;20444;-69
2021/12/13 03:33:51;;;;;;;88.37;14.63;;;;;;;9.45;100.00;50632.56;5092811;28;20038;-69
2021/12/13 03:36:35;;;;;;;100.80;14.73;;;;;;;9.48;100.00;51952.63;5096732;28;20024;-68
2021/12/13 03:39:01;;;;;;;93.70;14.83;;;;;;;9.44;100.00;50961.38;5086792;28;20023;-69
2021/12/13 03:41:27;;;;;;;96.37;15.30;;;;;;;9.48;100.00;51293.88;5094462;28;20046;-67
2021/12/13 03:43:59;;;;;;;94.53;14.37;;;;;;;9.49;100.00;51295.25;5096359;28;20031;-67
2021/12/13 03:46:29;;;;;;;86.30;14.27;;;;;;;9.50;100.00;51295.69;5095504;28;20024;-67
2021/12/13 03:48:57;;;;;;;100.77;14.67;;;;;;;9.46;100.00;50304.69;5092795;28;20535;-67
2021/12/13 03:51:28;;;;;;;90.07;14.10;;;;;;;9.44;100.00;50302.44;5092305;28;20032;-67
2021/12/13 03:53:56;;;;;;;93.63;14.60;;;;;;;9.47;100.00;49976.34;5093098;28;20477;-67
2021/12/13 03:56:28;;;;;;;111.13;15.77;;;;;;;9.48;100.00;50306.47;5100798;28;20270;-66
2021/12/13 03:59:01;;;;;;;89.10;14.52;;;;;;;9.47;100.00;49976.34;5097737;28;20523;-66
2021/12/13 04:01:40;;;;;;;83.23;14.30;;;;;;;9.49;100.00;50306.91;5095971;28;20027;-66
2021/12/13 04:04:10;;;;;;;75.30;13.80;;;;;;;9.48;100.00;49976.78;5100072;28;20070;-66
2021/12/13 04:06:55;;;;;;;92.77;14.77;;;;;;;9.47;100.00;49646.72;5097105;28;20024;-66
2021/12/13 04:09:23;;;;;;;92.40;13.10;;;;;;;9.47;100.00;49646.72;5097694;28;20526;-65
2021/12/13 04:11:53;;;;;;;82.03;13.57;;;;;;;9.44;100.00;49644.06;5087250;28;20593;-65
2021/12/13 04:14:28;;;;;;;92.97;15.20;;;;;;;9.46;100.00;49316.69;5089336;28;20454;-67
2021/12/13 04:17:20;;;;;;;88.93;13.30;;;;;;;9.45;100.00;49315.78;5094361;28;20028;-67
2021/12/13 04:19:58;;;;;;;103.30;14.45;;;;;;;9.43;100.00;49314.03;5098554;28;20028;-67
2021/12/13 04:22:28;;;;;;;79.77;14.70;;;;;;;9.41;100.00;49641.84;5097805;28;20157;-67
2021/12/13 04:25:01;;;;;;;84.60;12.70;;;;;;;9.42;100.00;48984.06;5092234;28;20036;-67
2021/12/13 04:27:38;;;;;;;77.63;12.83;;;;;;;9.42;100.00;50300.63;5090388;28;20038;-67
2021/12/13 04:30:22;;;;;;;80.00;13.23;;;;;;;9.40;100.00;49640.97;5099550;28;20035;-67
2021/12/13 04:33:10;;;;;;;80.43;13.80;;;;;;;9.42;100.00;49642.28;5097844;28;20566;-67
2021/12/13 04:35:36;;;;;;;80.97;13.73;;;;;;;9.45;100.00;50303.31;5099493;28;20031;-67
2021/12/13 04:38:05;;;;;;;76.83;13.40;;;;;;;9.45;100.00;49974.09;5093101;28;20028;-67
2021/12/13 04:40:35;;;;;;;84.90;13.73;;;;;;;9.42;100.00;49313.16;5097528;28;20346;-67
2021/12/13 04:43:13;;;;;;;78.43;13.20;;;;;;;9.42;100.00;49642.28;5098181;28;20353;-67
2021/12/13 04:45:42;;;;;;;85.63;13.80;;;;;;;9.45;100.00;49645.38;5098934;28;20028;-66
2021/12/13 04:48:15;;;;;;;70.27;12.77;;;;;;;9.46;100.00;48988.00;5094487;28;20020;-66
2021/12/13 04:50:56;;;;;;;71.80;12.60;;;;;;;9.45;100.00;48657.59;5092956;28;20027;-66
2021/12/13 04:53:30;;;;;;;71.50;13.00;;;;;;;9.44;100.00;48328.13;5096767;28;20081;-66
2021/12/13 04:55:58;;;;;;;75.97;13.40;;;;;;;9.46;100.00;48000.84;5088799;28;20313;-66
2021/12/13 04:58:25;;;;;;;76.03;13.57;;;;;;;9.45;100.00;47999.53;5095676;28;20036;-66
2021/12/13 05:00:56;;;;;;;66.10;12.37;;;;;;;9.44;100.00;47999.09;5098403;28;20261;-66
2021/12/13 05:03:29;;;;;;;60.80;11.10;;;;;;;9.43;100.00;47997.81;5094596;28;20043;-65
2021/12/13 05:05:58;;;;;;;65.37;11.70;;;;;;;9.45;100.00;48328.56;5091195;28;20031;-66
2021/12/13 05:08:24;;;;;;;60.27;11.93;;;;;;;9.44;100.00;48328.13;5100017;28;20073;-65
2021/12/13 05:10:51;;;;;;;72.63;12.67;;;;;;;9.43;100.00;47998.25;5097063;28;20016;-65
2021/12/13 05:13:31;;;;;;;62.23;12.97;;;;;;;9.46;100.00;48988.00;5097424;28;20057;-66
2021/12/13 05:16:04;;;;;;;72.37;12.20;;;;;;;9.45;100.00;48328.56;5092838;28;20616;-66
2021/12/13 05:18:32;;;;;;;76.17;12.53;;;;;;;9.43;100.00;47668.84;5089235;28;20309;-65
2021/12/13 05:21:12;;;;;;;65.00;11.97;;;;;;;9.49;100.00;48990.19;5093416;28;20291;-66
2021/12/13 05:24:09;;;;;;;62.73;11.33;;;;;;;9.50;100.00;47675.25;5099747;28;20031;-66
2021/12/13 05:26:58;;;;;;;63.47;12.03;;;;;;;9.45;100.00;47013.13;5093761;28;20127;-66
2021/12/13 05:29:23;;;;;;;61.60;11.87;;;;;;;9.45;100.00;47012.69;5091802;28;20042;-66
2021/12/13 05:31:51;;;;;;;64.63;11.67;;;;;;;9.48;100.00;47015.22;5095725;28;20040;-66
2021/12/13 05:34:17;;;;;;;62.33;11.00;;;;;;;9.45;100.00;46355.38;5086676;28;20023;-66
2021/12/13 05:36:54;;;;;;;52.00;10.80;;;;;;;9.42;100.00;46023.66;5090938;28;20027;-66
2021/12/13 05:39:20;;;;;;;54.83;11.00;;;;;;;9.45;100.00;46683.78;5097867;28;20307;-66
2021/12/13 05:41:55;;;;;;;53.60;10.80;;;;;;;9.51;100.00;46031.06;5094815;28;20150;-66
2021/12/13 05:44:28;;;;;;;39.93;9.17;;;;;;;9.50;100.00;46030.25;5086795;28;20032;-66
2021/12/13 05:46:54;;;;;;;46.33;10.90;;;;;;;9.48;100.00;45371.00;5093176;28;20024;-66
2021/12/13 05:49:27;;;;;;;50.83;10.57;;;;;;;9.41;100.00;44051.09;5096943;28;20031;-66
2021/12/13 05:52:10;;;;;;;42.03;9.53;;;;;;;9.46;100.00;44383.28;5084047;28;20219;-66
2021/12/13 05:54:58;;;;;;;40.50;9.80;;;;;;;9.45;100.00;44382.88;5093682;27;20027;-66
2021/12/13 05:57:29;;;;;;;33.57;8.80;;;;;;;9.50;100.00;42743.50;5086978;28;20484;-66
2021/12/13 06:00:11;;;;;;;25.67;7.07;;;;;;;9.47;100.00;41089.22;5095233;28;20030;-66
2021/12/13 06:02:39;;;;;;;;;;;;;;;9.40;100.00;40679.19;5083445;28;20024;-66
2021/12/13 06:05:16;;;;;;;21.03;6.83;;;;;;;9.35;100.00;39449.97;5094473;28;20382;-66
2021/12/13 06:07:51;;;;;;;19.87;6.30;;;;;;;9.37;100.00;38787.16;5091552;28;20429;-66
2021/12/13 06:10:18;;;;;;;17.13;5.97;;;;;;;9.32;100.00;37520.78;5098219;28;20095;-66
2021/12/13 06:12:58;;;;;;;14.20;5.67;;;;;;;9.26;100.00;36108.16;5090647;28;20264;-66
2021/12/13 06:15:42;;;;;;;13.20;4.27;;;;;;;9.24;100.00;34737.31;5094312;28;20028;-66
2021/12/13 06:18:16;;;;;;;8.33;3.13;;;;;;;9.18;100.00;33305.53;5088847;28;20494;-66
2021/12/13 06:21:22;;;;;;;9.83;3.23;;;;;;;9.18;100.00;31837.88;5099125;28;20356;-66
2021/12/13 06:23:48;;;;;;;7.33;3.03;;;;;;;9.13;100.00;30510.59;5098343;28;20028;-66
2021/12/13 06:26:14;;;;;;;7.87;2.60;;;;;;;9.12;100.00;29930.22;5098376;28;20092;-66
2021/12/13 06:28:43;;;;;;;7.73;2.50;;;;;;;9.02;100.00;29582.38;5094501;28;20042;-66
2021/12/13 06:31:13;;;;;;;11.33;3.07;;;;;;;8.95;100.00;29481.47;5098470;28;20283;-66
2021/12/13 06:33:51;;;;;;;9.77;3.80;;;;;;;8.93;100.00;30430.63;5089515;28;20042;-66
2021/12/13 06:36:32;;;;;;;9.37;3.10;;;;;;;8.83;100.00;30670.50;5088272;28;20083;-66
2021/12/13 06:39:01;;;;;;;9.77;3.23;;;;;;;8.78;100.00;31357.72;5093408;28;20544;-66
2021/12/13 06:41:26;;;;;;;10.90;3.30;;;;;;;8.73;100.00;30751.69;5097426;28;20424;-67
2021/12/13 06:43:51;;;;;;;13.73;3.80;;;;;;;8.67;100.00;29793.53;5098472;28;20035;-68
2021/12/13 06:46:23;;;;;;;11.20;3.80;;;;;;;8.66;100.00;29991.88;5095693;28;20305;-68
2021/12/13 06:48:54;;;;;;;14.07;4.27;;;;;;;8.62;100.00;29601.59;5089584;28;20182;-68
2021/12/13 06:51:38;;;;;;;16.13;4.40;;;;;;;8.69;100.00;30532.63;5093572;28;20020;-68
2021/12/13 06:54:20;;;;;;;17.77;4.83;;;;;;;8.73;100.00;30675.34;5091666;28;20062;-67
2021/12/13 06:56:54;;;;;;;16.45;5.72;;;;;;;8.77;100.00;30151.47;5079903;28;20028;-68
2021/12/13 06:59:20;;;;;;;18.40;5.90;;;;;;;8.77;100.00;30034.00;5098727;28;20027;-68
2021/12/13 07:02:17;;;;;;;20.57;6.00;;;;;;;8.74;100.00;29919.69;5095585;28;20429;-68
2021/12/13 07:05:01;;;;;;;20.30;6.40;;;;;;;8.70;100.00;29335.34;5096150;28;20306;-65
2021/12/13 07:08:00;;;;;;;19.13;6.40;;;;;;;8.69;100.00;29937.63;5098052;28;20642;-65
2021/12/13 07:10:42;;;;;;;27.83;7.93;;;;;;;8.71;100.00;29958.88;5098508;28;20035;-65
2021/12/13 07:13:21;;;;;;;25.93;8.07;;;;;;;8.75;100.00;30400.66;5094081;28;20157;-65
2021/12/13 07:16:22;;;;;;;24.40;7.07;;;;;;;8.74;100.00;30619.72;5098373;28;20024;-65
2021/12/13 07:18:52;;;;;;;24.10;7.80;;;;;;;8.78;100.00;30591.34;4995897;28;20054;-65
2021/12/13 07:21:31;;;;;;;23.97;7.93;;;;;;;8.77;100.00;30046.75;4997158;28;20048;-65
2021/12/13 07:24:05;;;;;;;25.63;7.87;;;;;;;8.79;100.00;29932.94;4987622;28;20026;-65
2021/12/13 07:26:49;;;;;;;27.63;9.33;;;;;;;8.80;100.00;30035.66;4999256;28;20249;-65
2021/12/13 07:29:22;;;;;;;31.30;8.70;;;;;;;8.79;100.00;29937.78;4999365;28;20038;-68
2021/12/13 07:32:18;;;;;;;25.73;7.03;;;;;;;8.75;100.00;30099.28;4998523;28;20123;-68
2021/12/13 07:35:05;;;;;;;31.93;8.73;;;;;;;8.77;100.00;29484.97;4992454;28;20038;-68
2021/12/13 07:37:49;;;;;;;27.77;8.00;;;;;;;8.78;100.00;29582.28;4990480;28;20038;-68
2021/12/13 07:40:31;;;;;;;27.57;8.27;;;;;;;8.85;100.00;29583.28;4988018;28;20445;-68
2021/12/13 07:43:05;;;;;;;;;;;;;;;8.80;100.00;29476.41;4999190;28;20034;-68
2021/12/13 07:45:39;;;;;;;30.90;8.47;;;;;;;8.77;100.00;29017.75;4998687;28;20290;-68
2021/12/13 07:48:12;;;;;;;31.10;8.40;;;;;;;8.73;100.00;28487.19;4994792;28;20033;-68
2021/12/13 07:50:39;;;;;;;29.43;8.93;;;;;;;8.78;100.00;28880.41;4990931;28;20260;-68
2021/12/13 07:53:11;;;;;;;31.03;8.93;;;;;;;8.80;100.00;28950.41;4999142;28;20034;-68
2021/12/13 07:55:46;;;;;;;31.73;9.70;;;;;;;8.81;100.00;28695.38;5081389;28;20040;-68
2021/12/13 07:58:16;;;;;;;38.17;10.10;;;;;;;8.79;100.00;28324.44;5100897;28;20051;-68
2021/12/13 08:00:41;;;;;;;34.50;9.30;;;;;;;8.85;100.00;28526.19;5102018;28;20028;-68
2021/12/13 08:03:11;;;;;;;38.57;9.53;;;;;;;8.81;100.00;27812.44;5086070;28;20043;-68
2021/12/13 08:05:46;;;;;;;31.83;10.00;;;;;;;8.83;100.00;28091.44;5060177;28;20480;-68
2021/12/13 08:08:45;;;;;;;34.17;9.90;;;;;;;8.82;100.00;27856.34;5060678;28;20169;-68
2021/12/13 08:11:10;;;;;;;35.00;10.57;;;;;;;8.82;100.00;27912.50;5053835;28;20359;-68
2021/12/13 08:13:36;;;;;;;38.00;10.73;;;;;;;8.86;100.00;28315.09;5057186;28;20102;-68
2021/12/13 08:16:06;;;;;;;32.33;9.40;;;;;;;8.85;100.00;28245.38;5061283;28;20028;-65
2021/12/13 08:18:36;;;;;;;33.00;9.80;;;;;;;8.86;100.00;28427.16;5060910;28;20031;-68
2021/12/13 08:21:20;;;;;;;32.13;10.27;;;;;;;8.84;100.00;27806.06;5061313;28;20024;-68
2021/12/13 08:23:48;;;;;;;33.10;9.80;;;;;;;8.82;100.00;27968.66;5060705;28;20122;-68
2021/12/13 08:26:25;;;;;;;37.57;10.17;;;;;;;8.84;100.00;27867.34;5060261;28;20170;-68
2021/12/13 08:28:53;;;;;;;35.93;10.80;;;;;;;8.81;100.00;27733.31;5059062;28;20676;-68
2021/12/13 08:31:28;;;;;;;37.93;11.57;;;;;;;8.86;100.00;28776.94;5050521;28;20028;-68
2021/12/13 08:34:06;;;;;;;35.77;11.70;;;;;;;8.86;100.00;27505.69;5059036;28;20036;-68
2021/12/13 08:36:41;;;;;;;36.67;11.77;;;;;;;8.87;100.00;27838.00;5060269;28;20479;-68
2021/12/13 08:39:20;;;;;;;38.23;11.83;;;;;;;8.87;100.00;27687.41;5047735;28;20451;-67
2021/12/13 08:41:58;;;;;;;38.97;12.37;;;;;;;8.82;100.00;27626.66;5060282;28;20043;-68
2021/12/13 08:44:34;;;;;;;35.93;11.90;;;;;;;8.86;100.00;27271.16;5060249;28;20067;-68
2021/12/13 08:47:06;;;;;;;31.53;10.00;;;;;;;8.88;100.00;27412.28;5058564;28;20031;-68
2021/12/13 08:49:40;;;;;;;38.90;11.70;;;;;;;8.90;100.00;27349.75;5055714;28;20021;-68
2021/12/13 08:52:20;;;;;;;40.27;11.07;;;;;;;8.90;100.00;26882.47;5058951;28;20055;-68
2021/12/13 08:55:00;;;;;;;38.97;11.93;;;;;;;8.90;100.00;27181.06;5065243;28;20032;-68
2021/12/13 08:57:38;;;;;;;38.33;11.50;;;;;;;8.88;100.00;27200.72;5059949;28;20039;-68
2021/12/13 09:00:16;;;;;;;34.27;10.47;;;;;;;8.96;100.00;26928.88;5043624;28;20029;-68
2021/12/13 09:03:08;;;;;;;34.43;10.87;;;;;;;8.96;100.00;26775.75;5043519;28;20025;-68
2021/12/13 09:05:59;;;;;;;34.13;11.63;;;;;;;8.95;100.00;26974.56;5091123;28;20050;-68
2021/12/13 09:08:53;;;;;;;35.27;11.53;;;;;;;8.94;100.00;26782.41;5017018;28;20041;-68
2021/12/13 09:11:22;;;;;;;33.20;11.33;;;;;;;8.92;100.00;26357.81;5017005;28;20522;-65
2021/12/13 09:13:59;;;;;;;33.93;11.70;;;;;;;8.92;100.00;26467.53;5016955;28;20251;-65
2021/12/13 09:16:52;;;;;;;31.03;11.03;;;;;;;8.94;100.00;26198.03;5016663;28;20102;-65
2021/12/13 09:19:20;;;;;;;32.70;11.13;;;;;;;8.95;100.00;25907.66;5016924;28;20553;-65
2021/12/13 09:22:00;;;;;;;31.73;10.23;;;;;;;8.92;100.00;25947.03;5016671;28;20047;-65
2021/12/13 09:24:32;;;;;;;32.37;11.00;;;;;;;8.93;100.00;26103.16;5013487;28;20068;-65
2021/12/13 09:27:26;;;;;;;31.67;10.97;;;;;;;8.93;100.00;25840.34;5016211;28;20038;-65
2021/12/13 09:30:18;;;;;;;29.50;10.40;;;;;;;8.88;100.00;25873.88;4996793;28;20041;-65
2021/12/13 09:32:50;;;;;;;31.00;10.73;;;;;;;8.99;100.00;25480.97;4935750;29;20039;-65
2021/12/13 09:35:22;;;;;;;31.83;11.43;;;;;;;8.94;100.00;24782.47;4942224;28;20162;-68
2021/12/13 09:37:49;;;;;;;33.17;12.07;;;;;;;8.96;100.00;24688.81;4941881;28;20036;-66
2021/12/13 09:40:17;;;;;;;27.87;10.83;;;;;;;8.96;100.00;24229.75;4942338;28;20291;-66
2021/12/13 09:42:47;;;;;;;34.10;12.37;;;;;;;8.97;100.00;23404.06;4943624;28;20570;-66
2021/12/13 09:45:19;;;;;;;33.07;11.27;;;;;;;8.97;100.00;23026.75;4954156;28;20556;-66
2021/12/13 09:47:45;;;;;;;28.27;10.50;;;;;;;8.96;100.00;23046.69;4995209;28;20492;-66
2021/12/13 09:50:21;;;;;;;30.20;10.87;;;;;;;8.95;100.00;25282.63;4992871;28;20038;-66
2021/12/13 09:52:59;;;;;;;31.43;12.07;;;;;;;8.92;100.00;25097.56;4982773;28;20037;-66
2021/12/13 09:55:45;;;;;;;35.50;11.87;;;;;;;8.93;100.00;24837.88;4976491;28;20202;-66
2021/12/13 09:58:16;;;;;;;31.00;10.93;;;;;;;8.94;100.00;24728.69;4983201;28;20044;-66
2021/12/13 10:01:04;;;;;;;30.63;12.50;;;;;;;8.94;100.00;24029.94;4996250;28;20522;-66
2021/12/13 10:03:43;;;;;;;30.67;11.30;;;;;;;8.97;100.00;23587.63;4976230;28;20050;-66
2021/12/13 10:06:10;;;;;;;34.40;11.47;;;;;;;8.96;100.00;22378.88;4982720;28;20030;-66
2021/12/13 10:08:46;;;;;;;30.77;10.73;;;;;;;8.94;100.00;21914.19;5035368;28;20111;-66
2021/12/13 10:11:25;;;;;;;30.33;11.27;;;;;;;8.96;100.00;27832.47;5078615;28;20510;-66
2021/12/13 10:13:52;;;;;;;25.13;10.10;;;;;;;9.02;100.00;26630.72;5061829;28;20020;-66
2021/12/13 10:16:28;;;;;;;29.17;11.23;;;;;;;8.96;100.00;24693.91;5065204;28;20059;-66
2021/12/13 10:18:55;;;;;;;32.53;11.83;;;;;;;8.91;100.00;24554.09;5073735;28;20051;-66
2021/12/13 10:21:31;;;;;;;27.57;10.77;;;;;;;8.90;100.00;24334.09;5077638;28;20028;-66
2021/12/13 10:24:03;;;;;;;28.00;10.90;;;;;;;8.92;100.00;23177.50;5074571;28;20496;-66
2021/12/13 10:26:33;;;;;;;32.53;12.18;;;;;;;8.95;100.00;22643.72;5076259;28;20044;-66
2021/12/13 10:29:02;;;;;;;29.17;11.53;;;;;;;8.94;100.00;21336.00;5075393;28;20032;-66
2021/12/13 10:31:32;;;;;;;27.00;11.13;;;;;;;8.99;100.00;19213.47;5076084;28;20384;-66
2021/12/13 10:33:59;;;;;;;25.47;9.87;;;;;;;9.00;100.00;17253.66;5076333;28;20034;-66
2021/12/13 10:36:28;;;;;;;26.27;10.60;;;;;;;8.99;100.00;15899.88;5076667;28;20194;-66
2021/12/13 10:38:59;;;;;;;27.23;9.83;;;;;;;8.97;100.00;14284.19;5076431;28;20031;-66
2021/12/13 10:41:32;;;;;;;24.23;9.60;;;;;;;9.04;100.00;12557.56;5076336;28;20218;-66
2021/12/13 10:44:05;;;;;;;27.00;10.53;;;;;;;8.99;100.00;10704.28;5065310;28;20031;-66
2021/12/13 10:46:35;;;;;;;29.10;10.43;;;;;;;8.97;100.00;11026.28;5076063;28;20105;-66
2021/12/13 10:49:05;;;;;;;24.20;9.77;;;;;;;8.93;100.00;10273.59;5078488;28;20031;-66
2021/12/13 10:51:43;;;;;;;23.70;10.03;;;;;;;9.00;100.00;8284.84;5077617;28;21164;-66
2021/12/13 10:54:15;;;;;;;25.73;9.70;;;;;;;8.97;100.00;5711.75;5075286;28;20659;-68
2021/12/13 10:56:46;;;;;;;24.88;9.75;;;;;;;8.99;100.00;4337.81;5065885;28;20039;-66
2021/12/13 10:59:17;;;;;;;28.70;10.50;;;;;;;8.99;100.00;2855.19;5077938;28;20059;-66
2021/12/13 11:01:46;;;;;;;26.17;10.10;;;;;;;8.97;100.00;1651.69;5073275;28;20462;-67
2021/12/13 11:04:17;;;;;;;26.83;10.60;;;;;;;9.00;100.00;5.94;5083669;28;20044;-67
2021/12/13 11:06:48;;;;;;;29.20;10.73;;;;;;;8.98;100.00;-1811.31;5098281;28;20055;-67
2021/12/13 11:09:19;;;;;;;25.63;9.70;;;;;;;8.99;100.00;-2595.56;5098550;28;20340;-68
2021/12/13 11:11:52;;;;;;;24.60;9.70;;;;;;;8.98;100.00;-5192.44;5093221;28;20043;-67
2021/12/13 11:14:21;;;;;;;22.10;9.37;;;;;;;9.00;100.00;-7107.84;5098397;28;20256;-67
2021/12/13 11:16:57;;;;;;;23.40;9.57;;;;;;;9.01;100.00;-8575.34;5092794;28;20206;-67
2021/12/13 11:19:33;;;;;;;22.90;9.27;;;;;;;8.98;100.00;-9324.88;5085711;28;20076;-67
2021/12/13 11:22:07;;;;;;;21.77;9.37;;;;;;;8.97;100.00;-9902.78;5095298;28;20593;-67
2021/12/13 11:24:36;;;;;;;24.60;9.63;;;;;;;8.97;100.00;-11505.13;5098330;28;20126;-67
2021/12/13 11:27:08;;;;;;;23.97;9.80;;;;;;;8.99;100.00;-12345.34;5094327;28;20030;-67
2021/12/13 11:29:35;;;;;;;21.07;9.63;;;;;;;9.01;100.00;-11916.78;5097997;28;20037;-67
2021/12/13 11:32:35;;;;;;;21.10;9.00;;;;;;;9.02;100.00;-12998.91;5095943;28;20114;-67
2021/12/13 11:35:06;;;;;;;22.83;8.77;;;;;;;9.02;100.00;-14307.47;5098478;28;20037;-67
2021/12/13 11:38:16;;;;;;;22.23;8.73;;;;;;;9.04;100.00;-15696.38;5096110;28;20051;-67
2021/12/13 11:40:47;;;;;;;17.57;8.13;;;;;;;9.06;100.00;-17908.38;5098336;28;20272;-67
2021/12/13 11:43:49;;;;;;;21.50;8.43;;;;;;;9.05;100.00;-19247.44;5097194;28;20511;-67
2021/12/13 11:46:37;;;;;;;19.20;8.67;;;;;;;9.03;100.00;-19402.31;5078346;28;20391;-67
2021/12/13 11:49:32;;;;;;;17.27;7.70;;;;;;;9.04;100.00;-19402.72;4994819;28;20129;-67
2021/12/13 11:52:24;;;;;;;15.67;7.10;;;;;;;9.09;100.00;-19403.91;4993431;28;20358;-67
2021/12/13 11:54:55;;;;;;;18.43;8.17;;;;;;;9.05;100.00;-19402.84;4998789;28;20542;-67
2021/12/13 11:58:00;;;;;;;18.33;7.63;;;;;;;9.02;100.00;-19402.06;4995032;28;20026;-67
2021/12/13 12:00:32;;;;;;;17.97;8.03;;;;;;;9.00;100.00;-19401.53;4994503;28;20069;-67
2021/12/13 12:03:28;;;;;;;18.53;8.13;;;;;;;9.00;100.00;-19401.66;4994949;28;20030;-67